Time;durP1;ratioP1;P1;durP2;ratioP2;P2;SDS_P1;SDS_P2;PMS_P1;PMS_P2;Temp;Humidity;BMP_temperature;BMP_pressure;BME280_temperature;BME280_humidity;BME280_pressure;Samples;Min_cycle;Max_cycle;Signal;HPM_P1;HPM_P2
2022/05/11 00:01:46;;;;;;;4.75;2.65;;;;;;;18.05;51.87;101231.03;5094668;28;20020;-62
2022/05/11 00:04:13;;;;;;;4.65;2.80;;;;;;;18.11;51.87;101228.28;5078301;28;20469;-61
2022/05/11 00:06:38;;;;;;;4.47;2.92;;;;;;;18.08;51.78;101228.34;5096295;28;20028;-62
2022/05/11 00:09:06;;;;;;;6.85;3.00;;;;;;;18.07;52.42;101235.44;5096419;28;20043;-62
2022/05/11 00:11:31;;;;;;;7.45;3.13;;;;;;;18.07;51.93;101229.22;5096249;28;20028;-61
2022/05/11 00:13:58;;;;;;;5.57;3.10;;;;;;;18.07;52.41;101226.56;5096258;28;20028;-62
2022/05/11 00:16:25;;;;;;;6.70;2.97;;;;;;;18.01;52.43;101222.19;5096265;28;20028;-62
2022/05/11 00:18:50;;;;;;;6.30;2.97;;;;;;;17.96;52.14;101219.56;5096178;28;20427;-61
2022/05/11 00:21:16;;;;;;;6.90;3.00;;;;;;;17.92;51.96;101216.97;5096021;28;20020;-61
2022/05/11 00:23:42;;;;;;;7.70;2.90;;;;;;;17.87;52.38;101213.47;5096232;28;20469;-62
2022/05/11 00:26:07;;;;;;;10.05;3.20;;;;;;;17.83;52.14;101212.63;5096027;28;20024;-62
2022/05/11 00:28:33;;;;;;;5.65;2.70;;;;;;;17.76;52.25;101210.94;5096135;28;20099;-61
2022/05/11 00:30:58;;;;;;;5.70;2.80;;;;;;;17.75;52.29;101207.38;5095973;28;20028;-61
2022/05/11 00:33:24;;;;;;;7.30;2.70;;;;;;;17.75;52.01;101195.81;5095922;28;20548;-61
2022/05/11 00:35:51;;;;;;;5.78;2.90;;;;;;;17.71;52.42;101202.06;5095755;28;20482;-62
2022/05/11 00:38:19;;;;;;;6.15;3.10;;;;;;;17.73;52.37;101195.78;5095765;28;20078;-62
2022/05/11 00:40:47;;;;;;;5.35;2.78;;;;;;;17.67;52.71;101192.31;5095753;28;20020;-61
2022/05/11 00:43:13;;;;;;;7.00;2.75;;;;;;;17.69;52.46;101193.19;5095783;28;20035;-61
2022/05/11 00:45:45;;;;;;;7.20;2.78;;;;;;;17.62;53.12;101195.03;5095734;28;20035;-61
2022/05/11 00:50:58;;;;;;;5.22;2.90;;;;;;;17.65;51.65;101183.44;5095862;28;20050;-62
2022/05/11 00:53:24;;;;;;;5.25;2.72;;;;;;;17.67;51.22;101178.94;5095531;28;20028;-62
2022/05/11 00:55:55;;;;;;;6.88;2.60;;;;;;;17.68;51.34;101184.25;5095486;28;20055;-62
2022/05/11 00:58:27;;;;;;;5.70;2.58;;;;;;;17.69;51.35;101180.69;5095501;28;20086;-61
2022/05/11 01:00:53;;;;;;;6.90;2.65;;;;;;;17.71;51.30;101170.88;5096166;28;20473;-61
2022/05/11 01:03:23;;;;;;;6.43;2.90;;;;;;;17.69;51.93;101182.50;5096732;28;20028;-61
2022/05/11 01:05:49;;;;;;;5.80;2.60;;;;;;;17.70;51.79;101177.13;5096743;28;20035;-61
2022/05/11 01:08:18;;;;;;;5.53;2.60;;;;;;;17.69;51.81;101171.81;5096467;28;20030;-61
2022/05/11 01:10:44;;;;;;;4.72;2.67;;;;;;;17.70;52.24;101179.78;5095493;28;20084;-61
2022/05/11 01:13:13;;;;;;;6.22;2.65;;;;;;;17.72;52.36;101175.28;5094914;28;20028;-61
2022/05/11 01:15:39;;;;;;;5.18;2.67;;;;;;;17.65;52.68;101164.72;5095327;28;20031;-62
2022/05/11 01:18:07;;;;;;;4.55;2.55;;;;;;;17.60;52.89;101166.56;5095032;28;20032;-61
2022/05/11 01:20:35;;;;;;;5.65;2.70;;;;;;;17.59;52.50;101152.31;5094984;28;20031;-62
2022/05/11 01:23:26;;;;;;;4.95;2.90;;;;;;;17.60;52.75;101153.19;5094872;28;20028;-61
2022/05/11 01:25:53;;;;;;;6.18;2.60;;;;;;;17.58;52.85;101149.66;5095093;28;20404;-62
2022/05/11 01:28:18;;;;;;;4.30;2.60;;;;;;;17.55;53.35;101147.03;5094784;28;20020;-62
2022/05/11 01:30:51;;;;;;;7.95;2.80;;;;;;;17.57;53.12;101151.47;5094855;28;20350;-61
2022/05/11 01:33:22;;;;;;;6.28;2.80;;;;;;;17.56;53.36;101157.72;5095171;28;20034;-61
2022/05/11 01:36:20;;;;;;;4.63;2.47;;;;;;;17.62;52.58;101154.06;5094770;28;20055;-61
2022/05/11 01:38:51;;;;;;;6.43;2.50;;;;;;;17.65;53.35;101151.38;5094670;28;20504;-62
2022/05/11 01:41:30;;;;;;;4.47;2.60;;;;;;;17.70;52.69;101147.72;5094584;28;20028;-62
2022/05/11 01:43:55;;;;;;;5.85;2.60;;;;;;;17.70;53.17;101142.38;5094467;28;20043;-61
2022/05/11 01:46:21;;;;;;;11.65;2.85;;;;;;;17.72;53.16;101139.66;5094546;28;20020;-61
2022/05/11 01:48:47;;;;;;;5.30;2.60;;;;;;;17.76;53.31;101146.78;5094556;28;20020;-61
2022/05/11 01:51:14;;;;;;;5.80;2.80;;;;;;;17.74;53.26;101144.13;5094509;28;20469;-61
2022/05/11 01:53:39;;;;;;;12.65;2.88;;;;;;;17.76;53.58;101144.09;5094215;28;20035;-62
2022/05/11 01:56:06;;;;;;;9.15;2.80;;;;;;;17.73;53.47;101142.34;5094101;28;20033;-62
2022/05/11 01:58:32;;;;;;;10.65;2.88;;;;;;;17.71;53.49;101143.25;5094498;28;20106;-61
2022/05/11 02:00:58;;;;;;;8.45;2.92;;;;;;;17.72;53.46;101140.53;5094276;28;20020;-61
2022/05/11 02:03:24;;;;;;;4.85;2.70;;;;;;;17.68;53.36;101135.28;5094120;28;20027;-61
2022/05/11 02:08:36;;;;;;;9.63;2.75;;;;;;;17.51;54.26;101136.41;5094418;28;20096;-61
2022/05/11 02:11:03;;;;;;;6.50;2.80;;;;;;;17.46;54.29;101138.22;5094259;28;20020;-61
2022/05/11 02:13:28;;;;;;;5.60;2.83;;;;;;;17.47;54.37;101141.78;5094090;28;20028;-61
2022/05/11 02:15:55;;;;;;;7.95;2.80;;;;;;;17.48;54.20;101138.22;5093915;28;20035;-62
2022/05/11 02:18:21;;;;;;;5.95;2.90;;;;;;;17.42;54.61;101138.28;5093871;28;20020;-61
2022/05/11 02:20:46;;;;;;;5.03;2.80;;;;;;;17.36;54.70;101128.56;5093832;28;20107;-62
2022/05/11 02:23:16;;;;;;;11.55;3.20;;;;;;;17.32;54.88;101129.50;5093371;28;20020;-62
2022/05/11 02:25:44;;;;;;;6.80;3.13;;;;;;;17.34;54.47;101124.16;5093708;28;20390;-61
2022/05/11 02:28:10;;;;;;;4.85;2.72;;;;;;;17.34;54.67;101126.81;5093670;28;20414;-61
2022/05/11 02:30:36;;;;;;;9.90;2.80;;;;;;;17.31;54.84;101124.22;5093710;28;20106;-61
2022/05/11 02:33:02;;;;;;;6.40;2.83;;;;;;;17.33;54.34;101122.38;5093710;28;20059;-61
2022/05/11 02:35:27;;;;;;;7.35;2.55;;;;;;;17.26;54.48;101118.94;5093575;28;20099;-62
2022/05/11 02:37:57;;;;;;;8.23;2.92;;;;;;;17.33;54.52;101127.72;5093473;28;20028;-61
2022/05/11 02:40:26;;;;;;;6.10;3.10;;;;;;;17.30;54.71;101126.00;5093509;28;20388;-61
2022/05/11 02:42:52;;;;;;;6.05;2.72;;;;;;;17.28;54.77;101125.13;5093777;28;20410;-61
2022/05/11 02:45:18;;;;;;;5.72;2.83;;;;;;;17.27;54.94;101128.69;5093425;28;20032;-61
2022/05/11 02:47:45;;;;;;;6.82;2.88;;;;;;;17.27;54.50;101124.22;5093527;28;20038;-61
2022/05/11 02:50:14;;;;;;;6.93;3.10;;;;;;;17.22;54.63;101112.72;5093165;28;20031;-62
2022/05/11 02:52:39;;;;;;;5.72;3.20;;;;;;;17.27;54.79;101121.56;5092750;28;20055;-60
2022/05/11 02:55:05;;;;;;;8.60;2.97;;;;;;;17.22;54.95;101127.88;5093320;28;20056;-62
2022/05/11 02:57:31;;;;;;;5.00;2.80;;;;;;;17.22;54.84;101126.09;5093139;28;20432;-61
2022/05/11 02:59:59;;;;;;;6.38;2.92;;;;;;;17.21;54.97;101128.75;5093368;28;20074;-61
2022/05/11 03:02:24;;;;;;;7.85;2.67;;;;;;;17.21;55.12;101120.75;5093319;28;20523;-61
2022/05/11 03:04:50;;;;;;;8.23;2.85;;;;;;;17.22;54.94;101122.53;5093267;28;20019;-61
2022/05/11 03:07:16;;;;;;;4.80;2.70;;;;;;;17.21;55.33;101121.63;5093199;28;20032;-61
2022/05/11 03:09:42;;;;;;;6.97;2.83;;;;;;;17.20;55.09;101122.53;5093361;28;20075;-62
2022/05/11 03:12:08;;;;;;;8.48;3.08;;;;;;;17.20;55.15;101116.31;5093200;28;20408;-61
2022/05/11 03:14:34;;;;;;;4.90;2.72;;;;;;;17.20;55.26;101110.97;5093146;28;20039;-61
2022/05/11 03:16:59;;;;;;;5.35;2.90;;;;;;;17.15;55.57;101100.34;5075064;28;20020;-61
2022/05/11 03:19:25;;;;;;;6.47;2.80;;;;;;;17.11;55.54;101106.63;5093264;28;20020;-61
2022/05/11 03:21:52;;;;;;;8.07;2.80;;;;;;;17.11;55.29;101106.63;5093279;28;20404;-62
2022/05/11 03:24:18;;;;;;;7.30;2.90;;;;;;;17.10;55.53;101104.88;5093050;28;20032;-61
2022/05/11 03:26:43;;;;;;;4.47;2.60;;;;;;;17.10;55.54;101101.31;5092999;28;20035;-61
2022/05/11 03:29:09;;;;;;;4.65;2.80;;;;;;;17.06;55.65;101096.91;5093032;28;20060;-61
2022/05/11 03:31:35;;;;;;;8.45;2.97;;;;;;;17.02;55.95;101090.72;5092993;28;20066;-61
2022/05/11 03:36:47;;;;;;;5.47;2.75;;;;;;;16.96;55.91;101085.47;5097085;28;20074;-61
2022/05/11 03:39:15;;;;;;;5.20;2.78;;;;;;;16.95;55.66;101087.22;5097029;28;20024;-61
2022/05/11 03:41:40;;;;;;;5.82;2.90;;;;;;;16.97;55.77;101089.91;5096885;28;20032;-62
2022/05/11 03:44:06;;;;;;;4.22;2.70;;;;;;;16.97;55.74;101087.22;5096738;28;20054;-61
2022/05/11 03:46:31;;;;;;;6.45;2.78;;;;;;;16.95;55.66;101079.22;5078623;28;20504;-61
2022/05/11 03:48:56;;;;;;;7.63;2.50;;;;;;;17.00;55.58;101079.16;5096778;28;20031;-63
2022/05/11 03:51:23;;;;;;;5.25;2.50;;;;;;;16.97;55.68;101081.88;5078583;28;20465;-61
2022/05/11 03:53:49;;;;;;;5.85;2.70;;;;;;;16.93;55.73;101086.38;5096648;28;20071;-61
2022/05/11 03:56:15;;;;;;;5.13;2.72;;;;;;;16.89;55.88;101071.28;5096428;28;20044;-61
2022/05/11 03:58:41;;;;;;;7.30;2.60;;;;;;;16.91;55.99;101066.81;5096662;28;20032;-61
2022/05/11 04:01:06;;;;;;;4.43;2.60;;;;;;;16.92;55.74;101073.06;5096412;28;20043;-61
2022/05/11 04:03:32;;;;;;;6.65;2.90;;;;;;;16.88;56.01;101071.31;5096092;28;20028;-61
2022/05/11 04:05:57;;;;;;;4.45;2.70;;;;;;;16.91;55.88;101073.94;5095637;28;20350;-62
2022/05/11 04:08:22;;;;;;;4.35;2.58;;;;;;;16.87;56.10;101081.09;5096122;28;20051;-61
2022/05/11 04:10:48;;;;;;;4.80;2.50;;;;;;;16.86;56.12;101073.97;5095900;28;20109;-62
2022/05/11 04:13:13;;;;;;;4.63;2.60;;;;;;;16.85;56.66;101072.22;5095974;28;20117;-61
2022/05/11 04:15:39;;;;;;;4.35;2.70;;;;;;;16.85;56.27;101066.00;5095737;28;20449;-61
2022/05/11 04:18:04;;;;;;;5.32;2.78;;;;;;;16.82;56.42;101064.25;5095642;28;20031;-61
2022/05/11 04:20:29;;;;;;;4.22;2.50;;;;;;;16.81;56.66;101073.16;5095613;28;20034;-62
2022/05/11 04:22:55;;;;;;;5.57;2.70;;;;;;;16.74;56.50;101061.69;5095424;28;20020;-62
2022/05/11 04:25:21;;;;;;;5.07;2.65;;;;;;;16.70;56.86;101065.25;5095419;28;20066;-61
2022/05/11 04:27:48;;;;;;;6.35;2.75;;;;;;;16.67;57.28;101065.28;5095426;28;20032;-61
2022/05/11 04:30:15;;;;;;;6.85;2.63;;;;;;;16.64;57.19;101065.31;5095532;28;20028;-61
2022/05/11 04:32:41;;;;;;;3.47;2.42;;;;;;;16.59;57.37;101066.25;5095416;28;20028;-61
2022/05/11 04:35:07;;;;;;;5.35;2.42;;;;;;;16.60;57.52;101065.34;5095377;28;20055;-61
2022/05/11 04:37:33;;;;;;;4.95;2.60;;;;;;;16.62;57.14;101069.78;5095385;28;20020;-62
2022/05/11 04:39:58;;;;;;;7.63;2.58;;;;;;;16.60;57.50;101063.56;5095277;28;20466;-62
2022/05/11 04:42:24;;;;;;;5.13;2.70;;;;;;;16.56;57.76;101059.16;5095465;28;20028;-61
2022/05/11 04:44:49;;;;;;;5.22;2.40;;;;;;;16.57;57.54;101060.91;5095189;28;20465;-61
2022/05/11 04:47:17;;;;;;;8.40;2.63;;;;;;;16.54;57.81;101068.97;5095957;28;20380;-61
2022/05/11 04:49:43;;;;;;;5.10;2.65;;;;;;;16.53;57.98;101072.56;5096144;28;20488;-61
2022/05/11 04:52:12;;;;;;;5.93;2.90;;;;;;;16.48;58.24;101066.34;5095891;28;20044;-61
2022/05/11 04:54:43;;;;;;;5.18;2.70;;;;;;;16.45;58.20;101067.28;5095048;28;20388;-61
2022/05/11 04:57:09;;;;;;;4.18;2.60;;;;;;;16.41;58.96;101070.00;5094835;28;20046;-61
2022/05/11 04:59:35;;;;;;;7.32;2.80;;;;;;;16.42;58.61;101067.31;5094840;28;20028;-61
2022/05/11 05:02:03;;;;;;;8.27;2.72;;;;;;;16.48;58.42;101066.34;5095250;28;20016;-61
2022/05/11 05:04:30;;;;;;;6.63;2.67;;;;;;;16.47;58.27;101054.81;5094636;28;20089;-61
2022/05/11 05:06:56;;;;;;;6.63;2.72;;;;;;;16.59;58.43;101064.47;5094544;28;20039;-61
2022/05/11 05:09:22;;;;;;;4.45;2.78;;;;;;;16.65;58.48;101074.19;5094749;28;20473;-61
2022/05/11 05:11:48;;;;;;;5.82;2.92;;;;;;;16.74;58.03;101068.78;5094796;28;20039;-61
2022/05/11 05:14:14;;;;;;;5.30;2.70;;;;;;;16.86;58.40;101070.44;5094678;28;20032;-61
2022/05/11 05:16:40;;;;;;;6.55;3.00;;;;;;;16.93;57.96;101065.00;5094692;28;20529;-61
2022/05/11 05:19:06;;;;;;;3.95;2.80;;;;;;;17.01;57.67;101070.28;5094906;28;20497;-61
2022/05/11 05:21:32;;;;;;;5.22;2.88;;;;;;;17.13;57.81;101077.22;5094196;28;20381;-62
2022/05/11 05:23:58;;;;;;;5.85;2.90;;;;;;;17.18;57.35;101073.63;5094385;28;20036;-61
2022/05/11 05:26:24;;;;;;;5.93;2.88;;;;;;;17.26;57.06;101076.19;5076085;28;20435;-61
2022/05/11 05:31:34;;;;;;;7.25;2.80;;;;;;;17.61;55.83;101083.72;5094670;28;20120;-61
2022/05/11 05:33:59;;;;;;;4.75;2.72;;;;;;;17.72;54.98;101081.75;5094383;28;20111;-62
2022/05/11 05:36:30;;;;;;;9.55;2.88;;;;;;;17.82;54.81;101084.34;5094105;28;20395;-61
2022/05/11 05:38:58;;;;;;;5.97;2.60;;;;;;;17.93;54.27;101091.25;5094375;28;20025;-61
2022/05/11 05:41:27;;;;;;;5.13;2.80;;;;;;;17.99;54.05;101083.16;5094152;28;20024;-61
2022/05/11 05:43:53;;;;;;;5.97;2.75;;;;;;;18.05;54.27;101084.84;5075728;28;20436;-61
2022/05/11 05:46:19;;;;;;;4.63;2.40;;;;;;;18.14;53.55;101083.81;5095310;28;20028;-61
2022/05/11 05:48:45;;;;;;;4.97;2.80;;;;;;;18.16;53.23;101095.38;5093698;28;20483;-62
2022/05/11 05:51:13;;;;;;;7.90;2.75;;;;;;;18.15;52.80;101091.81;5093970;28;20070;-61
2022/05/11 05:53:40;;;;;;;4.70;2.40;;;;;;;18.25;52.80;101092.56;5093848;28;20112;-61
2022/05/11 05:56:06;;;;;;;9.27;2.80;;;;;;;18.31;52.67;101088.88;5093679;28;20485;-61
2022/05/11 05:58:32;;;;;;;4.38;2.72;;;;;;;18.41;52.66;101095.81;5092716;28;20027;-61
2022/05/11 06:00:57;;;;;;;8.98;2.70;;;;;;;18.48;52.13;101101.03;5094003;28;20016;-61
2022/05/11 06:03:26;;;;;;;6.68;2.58;;;;;;;18.53;52.01;101091.13;5093438;28;20517;-62
2022/05/11 06:05:51;;;;;;;7.15;2.67;;;;;;;18.64;51.51;101087.41;5093658;28;20051;-61
2022/05/11 06:08:18;;;;;;;7.47;2.70;;;;;;;18.70;50.48;101103.38;5093504;28;20047;-61
2022/05/11 06:10:44;;;;;;;7.72;2.83;;;;;;;18.72;50.28;101096.22;5093469;28;20031;-61
2022/05/11 06:13:12;;;;;;;5.88;2.58;;;;;;;18.75;50.50;101096.13;5093395;28;20066;-61
2022/05/11 06:15:39;;;;;;;5.97;2.88;;;;;;;18.73;50.74;101093.50;5093536;28;20172;-61
2022/05/11 06:18:06;;;;;;;6.90;2.80;;;;;;;18.89;50.62;101091.41;5093334;28;20374;-62
2022/05/11 06:20:31;;;;;;;6.82;2.53;;;;;;;19.05;49.73;101094.63;5092987;28;20397;-61
2022/05/11 06:22:57;;;;;;;6.05;2.50;;;;;;;19.23;49.62;101088.94;5093253;28;20042;-61
2022/05/11 06:25:23;;;;;;;3.70;2.25;;;;;;;19.34;48.61;101085.13;5093117;28;20030;-61
2022/05/11 06:27:49;;;;;;;7.05;2.80;;;;;;;19.53;48.41;101089.19;5093362;28;20476;-61
2022/05/11 06:30:15;;;;;;;9.55;2.55;;;;;;;19.53;46.64;101081.13;5093170;28;20028;-61
2022/05/11 06:32:40;;;;;;;9.95;2.63;;;;;;;19.62;46.25;101083.63;5093195;28;20028;-61
2022/05/11 06:35:06;;;;;;;7.43;2.42;;;;;;;19.79;45.43;101079.69;5092841;28;20052;-62
2022/05/11 06:37:31;;;;;;;5.38;2.50;;;;;;;19.90;45.05;101080.28;5093717;28;20023;-61
2022/05/11 06:39:58;;;;;;;6.65;2.63;;;;;;;20.07;45.04;101075.41;5074853;28;20428;-61
2022/05/11 06:42:24;;;;;;;7.38;2.40;;;;;;;20.23;45.07;101073.22;5092967;28;20016;-61
2022/05/11 06:44:50;;;;;;;5.05;2.28;;;;;;;20.33;44.12;101071.19;5093044;28;20457;-61
2022/05/11 06:47:16;;;;;;;6.57;2.47;;;;;;;20.41;43.69;101075.41;5092842;28;20032;-61
2022/05/11 06:49:41;;;;;;;9.45;2.40;;;;;;;20.49;43.84;101075.25;5092776;28;20382;-62
2022/05/11 06:52:07;;;;;;;4.50;2.63;;;;;;;20.63;43.76;101069.50;5093069;28;20024;-62
2022/05/11 07:00:00;;;;;;;7.80;2.60;;;;;;;21.16;42.56;101070.69;5092897;28;20035;-61
2022/05/11 07:02:25;;;;;;;8.70;3.30;;;;;;;21.31;42.40;101071.16;5092580;28;20024;-62
2022/05/11 07:04:51;;;;;;;6.45;2.60;;;;;;;21.30;42.51;101075.66;5092697;28;20063;-61
2022/05/11 07:07:17;;;;;;;7.30;2.80;;;;;;;21.35;42.19;101079.09;5092737;28;20485;-61
2022/05/11 07:09:44;;;;;;;6.07;2.53;;;;;;;21.39;41.76;101074.53;5093152;28;20411;-61
2022/05/11 07:12:21;;;;;;;6.88;2.92;;;;;;;21.47;42.00;101075.19;5096887;28;20031;-61
2022/05/11 07:14:53;;;;;;;9.75;2.75;;;;;;;21.52;42.51;101077.72;5096926;28;20078;-62
2022/05/11 07:17:40;;;;;;;5.97;2.63;;;;;;;21.61;42.25;101075.63;5097230;28;20372;-61
2022/05/11 07:20:09;;;;;;;11.73;2.90;;;;;;;21.58;42.10;101083.78;5096787;28;20036;-61
2022/05/11 07:22:35;;;;;;;6.95;2.55;;;;;;;21.49;41.95;101078.69;5096743;28;20126;-61
2022/05/11 07:25:00;;;;;;;9.60;2.75;;;;;;;21.56;42.85;101077.56;5096746;28;20024;-61
2022/05/11 07:27:26;;;;;;;7.00;2.72;;;;;;;21.84;41.97;101077.59;5096669;28;20123;-62
2022/05/11 07:29:53;;;;;;;5.97;2.72;;;;;;;22.06;41.24;101067.00;5096624;28;20051;-61
2022/05/11 07:32:20;;;;;;;6.63;2.60;;;;;;;22.18;40.74;101066.63;5096645;28;20428;-61
2022/05/11 07:34:45;;;;;;;6.65;2.67;;;;;;;22.27;40.81;101069.91;5096752;28;20145;-61
2022/05/11 07:37:10;;;;;;;7.25;2.75;;;;;;;22.38;40.50;101070.44;5096587;28;20465;-61
2022/05/11 07:39:37;;;;;;;13.18;2.90;;;;;;;22.62;40.51;101074.97;5096515;28;20031;-61
2022/05/11 07:42:02;;;;;;;6.55;2.47;;;;;;;22.68;39.63;101076.56;5096391;28;20028;-61
2022/05/11 07:44:28;;;;;;;6.78;2.80;;;;;;;22.72;39.63;101073.69;5096203;28;20028;-61
2022/05/11 07:46:53;;;;;;;12.45;2.70;;;;;;;22.81;39.47;101067.09;5096498;28;20081;-61
2022/05/11 07:49:19;;;;;;;9.98;2.92;;;;;;;22.64;39.35;101066.81;5096369;28;20031;-61
2022/05/11 07:51:46;;;;;;;12.48;2.72;;;;;;;22.68;39.59;101071.19;5096259;28;20052;-61
2022/05/11 07:54:12;;;;;;;12.23;2.50;;;;;;;22.63;39.46;101068.66;5096241;28;20477;-61
2022/05/11 08:02:06;;;;;;;8.65;2.60;;;;;;;23.09;38.12;101075.09;5096262;28;20090;-61
2022/05/11 08:04:31;;;;;;;9.10;2.63;;;;;;;22.90;38.05;101069.47;5096004;28;20028;-61
2022/05/11 08:06:58;;;;;;;10.52;2.78;;;;;;;22.97;38.32;101072.84;5095832;28;20038;-61
2022/05/11 08:09:24;;;;;;;8.68;2.78;;;;;;;22.92;37.39;101078.41;5095704;28;20035;-62
2022/05/11 08:11:50;;;;;;;8.50;2.70;;;;;;;22.95;38.04;101074.69;5095729;28;20028;-62
2022/05/11 08:14:15;;;;;;;7.93;2.80;;;;;;;23.23;37.46;101086.22;5096020;28;20035;-62
2022/05/11 08:16:41;;;;;;;6.63;2.70;;;;;;;23.36;37.49;101081.25;5095696;28;20036;-62
2022/05/11 08:19:07;;;;;;;11.18;2.92;;;;;;;23.41;36.97;101075.66;5095928;28;20067;-61
2022/05/11 08:21:33;;;;;;;7.70;2.70;;;;;;;23.72;36.52;101070.88;5095975;28;20071;-61
2022/05/11 08:23:59;;;;;;;10.05;2.55;;;;;;;23.59;36.41;101065.97;5095913;28;20103;-61
2022/05/11 08:26:25;;;;;;;6.55;2.80;;;;;;;23.60;36.35;101075.84;5095628;28;20058;-62
2022/05/11 08:28:50;;;;;;;9.20;2.75;;;;;;;23.64;35.88;101074.75;5095647;28;20023;-62
2022/05/11 08:34:00;;;;;;;7.40;2.70;;;;;;;23.78;35.51;101064.34;5095766;28;20104;-62
2022/05/11 08:36:27;;;;;;;9.27;2.80;;;;;;;24.03;35.51;101066.91;5095451;28;20461;-61
2022/05/11 08:38:55;;;;;;;15.13;2.83;;;;;;;24.04;35.51;101065.09;5095283;28;20052;-62
2022/05/11 08:41:47;;;;;;;10.50;2.83;;;;;;;23.91;35.32;101062.88;5095614;28;20027;-62
2022/05/11 08:44:19;;;;;;;10.13;2.90;;;;;;;23.84;35.43;101061.38;5095203;28;20119;-61
2022/05/11 08:47:11;;;;;;;11.75;2.88;;;;;;;23.94;35.40;101068.16;5095118;28;20028;-61
2022/05/11 08:49:37;;;;;;;;;;;;;;;24.13;34.69;101073.66;5095011;28;20032;-62
2022/05/11 08:52:05;;;;;;;8.00;2.77;;;;;;;23.84;35.65;101055.09;5094700;28;19964;-61
2022/05/11 08:55:10;;;;;;;9.00;3.28;;;;;;;24.10;35.90;101076.50;5094206;28;20548;-61
2022/05/11 08:57:36;;;;;;;8.50;3.10;;;;;;;24.26;34.59;101057.81;4993199;28;20635;-61
2022/05/11 09:00:19;;;;;;;12.57;3.17;;;;;;;24.46;35.33;101060.59;4993087;28;20073;-61
2022/05/11 09:02:50;;;;;;;8.15;2.90;;;;;;;24.33;34.29;101059.34;4993374;28;20057;-61
2022/05/11 09:05:19;;;;;;;10.55;3.20;;;;;;;24.51;34.28;101070.31;4993080;28;20472;-61
2022/05/11 09:07:45;;;;;;;6.68;3.10;;;;;;;24.60;34.35;101061.81;4993190;28;20147;-61
2022/05/11 09:10:28;;;;;;;10.73;2.70;;;;;;;24.85;34.13;101064.28;4993110;28;20097;-61
2022/05/11 09:13:06;;;;;;;10.90;3.28;;;;;;;25.01;33.71;101057.25;4976851;28;20073;-61
2022/05/11 09:15:49;;;;;;;10.57;3.33;;;;;;;25.08;33.95;101055.13;4992965;28;20093;-62
2022/05/11 09:18:15;;;;;;;8.05;3.10;;;;;;;25.10;33.39;101051.44;4992973;28;20044;-62
2022/05/11 09:20:46;;;;;;;8.43;3.15;;;;;;;25.26;33.51;101051.59;4993007;28;20068;-62
2022/05/11 09:23:12;;;;;;;11.38;3.30;;;;;;;25.34;33.40;101048.53;4992800;28;20066;-62
2022/05/11 09:25:56;;;;;;;11.80;3.38;;;;;;;25.38;33.10;101042.00;4992734;28;20543;-61
2022/05/11 09:28:26;;;;;;;14.07;3.30;;;;;;;25.51;33.20;101047.72;4992716;28;20105;-62
2022/05/11 09:30:57;;;;;;;11.85;3.30;;;;;;;25.44;33.15;101045.31;4992856;28;20138;-61
2022/05/11 09:33:28;;;;;;;9.77;2.93;;;;;;;25.56;32.77;101042.94;5043514;28;20040;-62
2022/05/11 09:35:55;;;;;;;13.48;3.45;;;;;;;25.54;32.38;101048.44;5074206;28;20275;-62
2022/05/11 09:38:20;;;;;;;10.93;3.40;;;;;;;25.37;32.71;101041.16;5073861;28;20021;-61
2022/05/11 09:41:19;;;;;;;12.37;3.37;;;;;;;25.62;33.10;101043.53;5074035;28;20050;-61
2022/05/11 09:43:53;;;;;;;10.27;3.45;;;;;;;25.36;32.63;101042.09;5073848;28;20331;-61
2022/05/11 09:46:34;;;;;;;10.88;3.17;;;;;;;25.23;33.39;101036.41;5073772;28;20037;-62
2022/05/11 09:49:01;;;;;;;7.97;3.10;;;;;;;25.45;32.84;101036.25;5073712;28;20461;-62
2022/05/11 09:51:29;;;;;;;10.20;3.30;;;;;;;25.56;33.15;101035.72;5074054;28;20032;-61
2022/05/11 09:54:18;;;;;;;11.77;3.22;;;;;;;25.29;33.67;101037.03;5074139;28;20028;-62
2022/05/11 09:56:59;;;;;;;7.97;3.10;;;;;;;25.28;33.97;101025.34;5032494;28;20376;-62
2022/05/11 09:59:37;;;;;;;14.50;3.40;;;;;;;25.51;33.18;101035.06;5031838;28;20040;-62
2022/05/11 10:02:08;;;;;;;9.88;3.55;;;;;;;25.17;33.43;101033.09;5031601;28;20076;-62
2022/05/11 10:04:42;;;;;;;7.97;3.22;;;;;;;24.95;34.16;101019.66;5032497;28;20500;-61
2022/05/11 10:07:13;;;;;;;13.05;3.35;;;;;;;25.02;33.37;101023.84;5032564;28;20037;-62
2022/05/11 10:09:42;;;;;;;13.35;3.33;;;;;;;25.25;33.57;101030.91;5031808;28;20049;-62
2022/05/11 10:12:15;;;;;;;11.40;3.30;;;;;;;25.31;33.72;101038.75;5031221;28;20108;-61
2022/05/11 10:23:09;;;;;;;11.02;3.53;;;;;;;25.56;32.94;101022.19;5031279;28;20514;-62
2022/05/11 10:25:43;;;;;;;9.75;3.25;;;;;;;25.38;33.64;101029.38;5031070;28;20128;-62
2022/05/11 10:28:14;;;;;;;10.55;3.20;;;;;;;25.54;33.38;101026.81;5030918;28;20049;-62
2022/05/11 10:31:01;;;;;;;9.02;3.42;;;;;;;25.55;33.64;101014.16;5031037;28;20037;-62
2022/05/11 10:33:46;;;;;;;7.63;3.25;;;;;;;25.66;32.78;101009.09;5046948;28;20127;-62
2022/05/11 10:36:20;;;;;;;12.65;3.50;;;;;;;25.86;33.06;101019.81;5072982;28;20059;-61
2022/05/11 10:39:13;;;;;;;11.25;3.67;;;;;;;26.05;33.59;101002.66;5072733;28;20561;-62
2022/05/11 10:42:03;;;;;;;6.43;2.83;;;;;;;25.98;33.08;100993.97;5072855;28;20496;-62
2022/05/11 10:44:37;;;;;;;10.93;3.40;;;;;;;25.77;33.14;100997.75;5072288;28;20033;-61
2022/05/11 10:47:40;;;;;;;14.30;3.60;;;;;;;25.86;33.06;100997.28;5073429;28;20123;-62
2022/05/11 10:50:24;;;;;;;10.63;3.53;;;;;;;26.06;33.08;100990.88;5072793;28;20079;-61
2022/05/11 10:53:09;;;;;;;10.77;3.00;;;;;;;26.15;32.26;100985.84;5073126;28;20472;-61
2022/05/11 10:56:13;;;;;;;11.35;2.95;;;;;;;25.96;32.06;100993.19;5072840;28;20093;-62
2022/05/11 10:59:08;;;;;;;10.55;3.58;;;;;;;25.81;32.50;101008.34;5072571;28;20044;-62
2022/05/11 11:02:08;;;;;;;6.50;2.70;;;;;;;25.99;32.21;100998.41;5072645;28;20024;-62
2022/05/11 11:05:11;;;;;;;11.75;2.90;;;;;;;26.35;31.72;100982.09;5072591;28;20043;-61
2022/05/11 11:07:49;;;;;;;10.65;2.90;;;;;;;26.65;31.04;100981.44;5072707;28;20029;-62
2022/05/11 11:10:26;;;;;;;7.57;2.65;;;;;;;26.82;30.65;100985.97;5072281;28;20032;-62
2022/05/11 11:13:27;;;;;;;7.43;3.40;;;;;;;27.09;31.01;100973.59;5072477;28;20461;-62
2022/05/11 11:15:53;;;;;;;8.35;3.30;;;;;;;27.44;30.84;100971.59;5072437;28;20039;-62
2022/05/11 11:18:29;;;;;;;8.23;3.13;;;;;;;27.71;30.05;100969.13;5072482;28;20504;-62
2022/05/11 11:20:58;;;;;;;8.98;3.42;;;;;;;28.02;29.98;100974.59;5072331;28;20025;-62
2022/05/11 11:23:24;;;;;;;10.10;3.50;;;;;;;27.96;30.11;100973.09;5072336;28;20059;-62
2022/05/11 11:25:53;;;;;;;7.77;3.17;;;;;;;28.24;29.72;100963.31;5072241;28;20063;-62
2022/05/11 11:28:39;;;;;;;9.15;2.88;;;;;;;28.57;28.21;100963.97;5072366;28;20752;-61
2022/05/11 11:31:14;;;;;;;10.70;2.83;;;;;;;28.27;27.54;100960.41;5064755;28;20047;-62
2022/05/11 11:34:02;;;;;;;8.63;2.92;;;;;;;27.94;28.72;100942.47;5072466;28;20100;-62
2022/05/11 11:36:40;;;;;;;8.75;3.00;;;;;;;27.90;29.13;100958.06;5072067;28;20553;-62
2022/05/11 11:39:11;;;;;;;8.73;3.00;;;;;;;27.90;29.13;100954.47;5054518;28;20025;-62
2022/05/11 11:41:42;;;;;;;12.82;3.10;;;;;;;28.03;28.81;100941.03;5072074;28;20052;-63
2022/05/11 11:44:20;;;;;;;7.60;2.90;;;;;;;28.25;28.80;100946.03;5072276;28;20035;-62
2022/05/11 11:46:46;;;;;;;7.75;2.95;;;;;;;28.08;28.69;100937.06;5072202;28;20021;-62
2022/05/11 11:49:21;;;;;;;8.65;2.88;;;;;;;28.10;29.82;100940.56;5072274;28;20050;-62
2022/05/11 11:51:54;;;;;;;8.18;2.70;;;;;;;28.31;28.23;100937.47;5072362;28;20043;-62
2022/05/11 11:54:29;;;;;;;16.40;2.85;;;;;;;28.22;27.66;100933.47;5072194;28;20041;-62
2022/05/11 11:56:57;;;;;;;9.85;2.97;;;;;;;28.16;26.88;100933.88;5080768;28;20512;-62
2022/05/11 11:59:24;;;;;;;9.30;2.80;;;;;;;28.34;27.15;100932.72;5096230;28;20043;-62
2022/05/11 12:01:54;;;;;;;11.35;3.10;;;;;;;28.47;26.90;100927.44;5096345;28;20550;-62
2022/05/11 12:04:38;;;;;;;9.90;2.78;;;;;;;28.47;26.90;100940.16;5095985;28;20032;-62
2022/05/11 12:15:36;;;;;;;11.27;2.90;;;;;;;28.35;28.35;100923.66;5095828;28;20047;-62
2022/05/11 12:18:21;;;;;;;11.48;2.80;;;;;;;28.41;27.66;100914.25;5095792;28;20016;-62